Airfield :
LOGIN :

Register | Disclaimer

   EN    FR    IT 

 










Legend :    VFR   Marginal VFR   IFR   Intensive IFR   Very Intensive IFR
Visi :
Ceiling :
>= 8 km
>= 3000ft
5 to 8 km
1000 to 3000 ft
1500m to 5 km
500 to 1000 ft
800 to 1500m
200 to 500 ft
< 800m
< 200 ft
Symbols :   Thunderstorms  Fog  Heavy snow  Heavy precipitations  Wind > 20 kt
SIGMETs :     Misc.  Thunderstorms  Icing  Turbulence  Mountain Waves  Volcanic Ashes







- Airport Elevation : 333 ft


LIPL - Ghedi Brescia (Mil)

CURRENT METAR :
  • 170855Z /////KT 7000 NSC 16/11 Q1026 RMK FEW FEW200 VIS MIN 7000 WIND THR31 22002KT WHT

EXPIRED METARs :
  • 170755Z /////KT 6000 NSC 14/12 Q1026 RMK FEW FEW200 VIS MIN 6000 WIND THR31 25002KT WHT
  • 170655Z /////KT 4500 BR NSC 09/09 Q1026 RMK FEW FEW200 VIS MIN 4500 WIND THR31 02002KT GRN

TAF TAF LIPL
Valid from the 17 at 09:00 until the 17 at 18:00 UTC


170800Z 1709/1718 VRB03KT 7000 NSC
BECMG 1716/1718 4000 BR
No reported NOTAMs for that airfield.



MET'MAP, your aeronautical weather chart ! - Copyright ORBIFLY December 2007 - Disclaimer

ORBIFLY MET'MAP TEAM :

Programming & Development : Alexandra Zaïnal
Concept & Development : Baudouin d'Aumeries
Co-Development & Prog : Marc-Olivier Méhu
Technical & hardware support : Manuel Goepfert

Contact : metmap@orbifly.com




SOURCES & CREDITS :

   NOAA